Necton, United Kingdom
Current Conditions -  °F | °C
As of 12:50 PM on Thursday 30 Oct 2014 (Local Time) from EGYM Reporting Station
Haze Haze  
Wind Chill: 63°   Ceiling: 1500
Heat Index: 63°   Visibility: 4mi
Dew Point: 59°   Wind: 10mph
Humidity: 88%   Direction: 210°SSW
Pressure: 30.03"   Gusts: NA
Location:  52.65°N, 0.78°E
Report Text: EGYM 301250Z 21009KT 7000 HZ FEW014 BKN015 BKN040 17/15 Q1017 WHT NOSIG
Loading
Personal Weather Stations






























Interactive Weather Map
Tropical Storm Tracking
New forecast layout! Learn more

10-Day Weather Forecast

Advertisements
Track Severe Weather on mobile